Main page
METAR-TAF:

METAR-TAF

Airports :

Durham, England

Durham Tees Valley Airport

latitude: 54-31N, longitude: 001-25W, elevation: 37 m

Current weather observation

The report was made 5 hours and 1 minutes ago, at 20:50 UTC
Wind 2 kt from the Southeast
Temperature 14°C
Humidity 88%
Pressure 1023 hPa
Visibility: 7000 m
Few clouds at a height of 500 ft
Scattered clouds at a height of 3300 ft

METAR: EGNV 252050Z 13002KT 7000 FEW005 SCT033 14/12 Q1023

Time: 02:51 (01:51 UTC)

Forecast

The report was made 5 hours and 54 minutes ago, at 19:57 UTC
Forecast valid from 25 at 21 UTC to 25 at 23 UTC
Wind 5 kt from variable directions
Visibility: 8000 m
Few clouds at a height of 500 ft
Probability 30% :
Temporary
from 25 at 21 UTC to 25 at 23 UTC
Visibility: 3000 m
Broken clouds at a height of 400 ft
mist

TAF: EGNV 251957Z 2521/2523 VRB05KT 8000 FEW005 PROB30 TEMPO 2521/2523 3000 BR BKN004

Weather observations and forecasts of more than 4000 airports (METAR and TAF reports).

The available stations are represented by yellow and red dots on the map.

Hover mouse over dot to see the name of the station.

Then click to see weather observations and forecasts.

To change the map : click on the green buttons with a black cross to zoom in, on the green button with a dash to zoom out, or on the green arrows for adjacent maps.


METAR-TAF: